Time;durP1;ratioP1;P1;durP2;ratioP2;P2;SDS_P1;SDS_P2;PMS_P1;PMS_P2;Temp;Humidity;BMP_temperature;BMP_pressure;BME280_temperature;BME280_humidity;BME280_pressure;Samples;Min_cycle;Max_cycle;Signal;HPM_P1;HPM_P2
2022/03/05 00:00:36;;;;;;;;;;;;;;;16.73;60.28;98546.72;2092096;28;20122;-58
2022/03/05 00:01:37;;;;;;;;;;;;;;;16.71;60.26;98544.22;2092218;28;20025;-60
2022/03/05 00:02:38;;;;;;;;;;;;;;;16.71;60.22;98538.84;2093047;28;19975;-59
2022/03/05 00:03:40;;;;;;;;;;;;;;;16.70;60.20;98537.22;2089797;28;19931;-59
2022/03/05 00:04:40;;;;;;;;;;;;;;;16.70;60.33;98539.06;2092318;28;19973;-59
2022/03/05 00:05:42;;;;;;;;;;;;;;;16.69;60.31;98543.59;2091754;28;19932;-59
2022/03/05 00:06:44;;;;;;;;;;;;;;;16.69;60.19;98542.78;2089827;28;19928;-60
2022/03/05 00:07:45;;;;;;;;;;;;;;;16.67;60.27;98540.28;2090924;28;20298;-58
2022/03/05 00:08:46;;;;;;;;;;;;;;;16.67;60.14;98542.13;2092713;28;20081;-58
2022/03/05 00:09:47;;;;;;;;;;;;;;;16.66;60.26;98535.09;2092111;28;19982;-57
2022/03/05 00:10:49;;;;;;;;;;;;;;;16.65;60.26;98534.28;2092191;28;19932;-58
2022/03/05 00:11:50;;;;;;;;;;;;;;;16.66;60.20;98537.78;2092506;28;19936;-58
2022/03/05 00:12:53;;;;;;;;;;;;;;;16.65;60.32;98536.13;2092908;28;20005;-60
2022/03/05 00:13:54;;;;;;;;;;;;;;;16.64;60.29;98532.63;2092152;28;20314;-58
2022/03/05 00:14:56;;;;;;;;;;;;;;;16.64;60.11;98532.63;2092418;28;20042;-59
2022/03/05 00:15:57;;;;;;;;;;;;;;;16.64;60.18;98534.47;2092630;28;19978;-57
2022/03/05 00:16:58;;;;;;;;;;;;;;;16.63;60.22;98533.66;2090561;28;19928;-59
2022/03/05 00:17:59;;;;;;;;;;;;;;;16.62;60.28;98531.97;2091603;28;20461;-57
2022/03/05 00:19:01;;;;;;;;;;;;;;;16.61;60.29;98530.34;2092370;28;20011;-58
2022/03/05 00:20:02;;;;;;;;;;;;;;;16.60;60.29;98526.00;2091551;28;20205;-61
2022/03/05 00:21:04;;;;;;;;;;;;;;;16.62;60.21;98533.84;2092641;28;19936;-60
2022/03/05 00:22:04;;;;;;;;;;;;;;;16.59;60.33;98516.31;2090159;28;19932;-59
2022/03/05 00:23:06;;;;;;;;;;;;;;;16.60;60.14;98530.53;2092255;28;19929;-58
2022/03/05 00:24:07;;;;;;;;;;;;;;;16.58;60.26;98522.69;2091604;28;19928;-60
2022/03/05 00:25:08;;;;;;;;;;;;;;;16.57;60.24;98526.38;2092368;28;19936;-58
2022/03/05 00:26:11;;;;;;;;;;;;;;;16.57;60.22;98529.06;2091983;28;19929;-59
2022/03/05 00:27:12;;;;;;;;;;;;;;;16.57;60.23;98530.91;2090665;28;20471;-60
2022/03/05 00:28:15;;;;;;;;;;;;;;;16.55;60.28;98523.09;2092727;28;20147;-59
2022/03/05 00:29:16;;;;;;;;;;;;;;;16.56;60.17;98526.59;2093105;28;20378;-58
2022/03/05 00:30:17;;;;;;;;;;;;;;;16.53;60.20;98522.44;2091547;28;19928;-59
2022/03/05 00:31:18;;;;;;;;;;;;;;;16.53;60.31;98525.13;2091799;28;20035;-59
2022/03/05 00:32:19;;;;;;;;;;;;;;;16.52;60.19;98528.81;2091923;28;19928;-59
2022/03/05 00:33:21;;;;;;;;;;;;;;;16.51;60.29;98527.97;2092581;28;19928;-60
2022/03/05 00:34:21;;;;;;;;;;;;;;;16.49;60.21;98530.03;2093605;28;20190;-58
2022/03/05 00:35:23;;;;;;;;;;;;;;;16.49;60.26;98521.16;2092001;28;20045;-58
2022/03/05 00:36:25;;;;;;;;;;;;;;;16.48;60.19;98519.50;2093947;28;19925;-59
2022/03/05 00:37:25;;;;;;;;;;;;;;;16.47;60.25;98521.38;2094571;28;20015;-60
2022/03/05 00:38:27;;;;;;;;;;;;;;;16.46;60.34;98519.69;2093090;28;19928;-58
2022/03/05 00:39:27;;;;;;;;;;;;;;;16.46;60.30;98525.03;2093300;28;19928;-60
2022/03/05 00:40:29;;;;;;;;;;;;;;;16.45;60.29;98522.56;2093203;28;20679;-58
2022/03/05 00:41:29;;;;;;;;;;;;;;;16.44;60.32;98526.28;2092451;28;19932;-60
2022/03/05 00:42:31;;;;;;;;;;;;;;;16.44;60.28;98529.78;2093763;28;19924;-60
2022/03/05 00:43:34;;;;;;;;;;;;;;;16.42;60.29;98526.47;2093657;28;19929;-60
2022/03/05 00:44:34;;;;;;;;;;;;;;;16.43;60.39;98529.97;2090733;28;20159;-59
2022/03/05 00:45:37;;;;;;;;;;;;;;;16.42;60.30;98522.97;2092429;28;20325;-57
2022/03/05 00:46:40;;;;;;;;;;;;;;;16.40;60.34;98525.00;2093763;28;19932;-58
2022/03/05 00:47:41;;;;;;;;;;;;;;;16.38;60.35;98522.53;2092295;28;19928;-59
2022/03/05 00:48:42;;;;;;;;;;;;;;;16.39;60.30;98526.84;2092505;28;19935;-59
2022/03/05 00:49:44;;;;;;;;;;;;;;;16.37;60.32;98523.53;2092174;28;19925;-59
2022/03/05 00:50:44;;;;;;;;;;;;;;;16.37;60.33;98523.53;2092980;28;19935;-59
2022/03/05 00:51:46;;;;;;;;;;;;;;;16.36;60.25;98518.38;2092916;28;20019;-58
2022/03/05 00:52:47;;;;;;;;;;;;;;;16.36;60.41;98523.75;2090845;28;20448;-60
2022/03/05 00:53:48;;;;;;;;;;;;;;;16.34;60.43;98523.09;2093434;28;19935;-58
2022/03/05 00:54:49;;;;;;;;;;;;;;;16.33;60.44;98524.94;2091297;28;20271;-59
2022/03/05 00:55:50;;;;;;;;;;;;;;;16.34;60.37;98517.75;2093769;28;19929;-60
2022/03/05 00:56:51;;;;;;;;;;;;;;;16.31;60.41;98525.13;2094329;28;20684;-60
2022/03/05 00:57:52;;;;;;;;;;;;;;;16.32;60.33;98528.63;2093116;28;20031;-60
2022/03/05 00:58:55;;;;;;;;;;;;;;;16.30;60.39;98528.81;2093441;28;19935;-60
2022/03/05 00:59:55;;;;;;;;;;;;;;;16.29;60.45;98524.47;2092704;28;20590;-60
2022/03/05 01:00:57;;;;;;;;;;;;;;;16.29;60.47;98523.66;2091636;28;20129;-58
2022/03/05 01:01:58;;;;;;;;;;;;;;;16.27;60.46;98529.22;2092746;28;19955;-58
2022/03/05 01:02:59;;;;;;;;;;;;;;;16.26;60.47;98524.88;2094145;28;20082;-60
2022/03/05 01:04:00;;;;;;;;;;;;;;;16.26;60.45;98518.69;2091410;28;19936;-58
2022/03/05 01:05:01;;;;;;;;;;;;;;;16.24;60.44;98532.28;2093124;28;20257;-58
2022/03/05 01:06:02;;;;;;;;;;;;;;;16.24;60.44;98531.41;2093777;28;19931;-59
2022/03/05 01:07:04;;;;;;;;;;;;;;;16.23;60.51;98533.28;2093677;28;19951;-60
2022/03/05 01:08:04;;;;;;;;;;;;;;;16.23;60.49;98532.44;2093819;28;19928;-59
2022/03/05 01:09:06;;;;;;;;;;;;;;;16.23;60.45;98535.94;2093944;28;19925;-59
2022/03/05 01:10:07;;;;;;;;;;;;;;;16.20;60.49;98528.31;2093085;28;20027;-59
2022/03/05 01:11:09;;;;;;;;;;;;;;;16.20;60.56;98530.97;2094119;28;20342;-60
2022/03/05 01:12:10;;;;;;;;;;;;;;;16.19;60.46;98528.50;2091266;28;20259;-58
2022/03/05 01:13:11;;;;;;;;;;;;;;;16.18;60.47;98522.31;2094444;28;19925;-59
2022/03/05 01:14:13;;;;;;;;;;;;;;;16.17;60.50;98525.19;2094709;28;19928;-58
2022/03/05 01:15:15;;;;;;;;;;;;;;;16.16;60.45;98523.50;2093401;28;20015;-59
2022/03/05 01:16:16;;;;;;;;;;;;;;;16.14;60.57;98521.03;2094189;28;20374;-59
2022/03/05 01:17:18;;;;;;;;;;;;;;;16.14;60.58;98521.03;2094651;28;19929;-59
2022/03/05 01:18:20;;;;;;;;;;;;;;;16.13;60.57;98524.75;2095319;28;20062;-59
2022/03/05 01:19:20;;;;;;;;;;;;;;;16.12;60.49;98528.44;2094268;28;19968;-58
2022/03/05 01:20:22;;;;;;;;;;;;;;;16.12;60.60;98523.06;2091459;28;20749;-58
2022/03/05 01:21:22;;;;;;;;;;;;;;;16.11;60.57;98521.44;2094633;28;19939;-59
2022/03/05 01:22:24;;;;;;;;;;;;;;;16.10;60.66;98525.09;2093832;28;20040;-60
2022/03/05 01:23:24;;;;;;;;;;;;;;;16.10;60.62;98519.75;2093157;28;19929;-59
2022/03/05 01:24:26;;;;;;;;;;;;;;;16.09;60.62;98523.47;2093636;28;20489;-58
2022/03/05 01:25:27;;;;;;;;;;;;;;;16.08;60.55;98521.81;2094623;28;19924;-59
2022/03/05 01:26:29;;;;;;;;;;;;;;;16.07;60.62;98528.16;2092787;28;19975;-58
2022/03/05 01:27:31;;;;;;;;;;;;;;;16.07;60.55;98526.34;2093885;28;19933;-58
2022/03/05 01:28:31;;;;;;;;;;;;;;;16.05;60.59;98525.69;2090812;28;20023;-58
2022/03/05 01:29:34;;;;;;;;;;;;;;;16.05;60.56;98523.03;2093576;28;19932;-60
2022/03/05 01:30:35;;;;;;;;;;;;;;;16.04;60.69;98526.69;2092751;28;20295;-60
2022/03/05 01:31:37;;;;;;;;;;;;;;;16.04;60.65;98528.53;2091661;28;19924;-59
2022/03/05 01:32:38;;;;;;;;;;;;;;;16.03;60.69;98525.03;2093054;28;19936;-60
2022/03/05 01:33:39;;;;;;;;;;;;;;;16.01;60.59;98516.38;2093658;28;19935;-59
2022/03/05 01:34:40;;;;;;;;;;;;;;;16.00;60.60;98514.72;2093413;28;20177;-59
2022/03/05 01:35:41;;;;;;;;;;;;;;;16.00;60.71;98513.91;2094338;28;19928;-59
2022/03/05 01:36:42;;;;;;;;;;;;;;;15.99;60.65;98512.22;2093757;28;20346;-58
2022/03/05 01:37:43;;;;;;;;;;;;;;;15.98;60.65;98522.09;2093710;28;19935;-61
2022/03/05 01:38:45;;;;;;;;;;;;;;;15.97;60.72;98517.78;2091543;28;20025;-60
2022/03/05 01:39:45;;;;;;;;;;;;;;;15.97;60.66;98517.78;2092918;28;19932;-59
2022/03/05 01:40:47;;;;;;;;;;;;;;;15.96;60.74;98512.59;2093444;28;19924;-60
2022/03/05 01:41:49;;;;;;;;;;;;;;;15.95;60.69;98516.31;2093945;28;19951;-59
2022/03/05 01:42:51;;;;;;;;;;;;;;;15.96;60.71;98515.28;2093667;28;20107;-60
2022/03/05 01:43:52;;;;;;;;;;;;;;;15.93;60.68;98508.47;2093362;28;20569;-60
2022/03/05 01:44:55;;;;;;;;;;;;;;;15.93;60.72;98511.13;2093183;28;19925;-58
2022/03/05 01:45:55;;;;;;;;;;;;;;;15.92;60.75;98511.34;2092386;28;19977;-60
2022/03/05 01:46:57;;;;;;;;;;;;;;;15.91;60.66;98510.53;2091426;28;19936;-58
2022/03/05 01:47:57;;;;;;;;;;;;;;;15.89;60.81;98507.19;2092527;28;19925;-58
2022/03/05 01:48:59;;;;;;;;;;;;;;;15.89;60.82;98503.69;2091519;28;20414;-60
2022/03/05 01:50:00;;;;;;;;;;;;;;;15.89;60.73;98501.03;2093313;28;19928;-57
2022/03/05 01:51:01;;;;;;;;;;;;;;;15.88;60.75;98499.34;2091136;28;20337;-58
2022/03/05 01:52:03;;;;;;;;;;;;;;;15.87;60.67;98506.56;2092593;28;19928;-60
2022/03/05 01:53:03;;;;;;;;;;;;;;;15.86;60.85;98500.38;2092878;28;20442;-58
2022/03/05 01:54:06;;;;;;;;;;;;;;;15.85;60.60;98501.41;2092515;28;20011;-58
2022/03/05 01:55:07;;;;;;;;;;;;;;;15.86;60.77;98500.38;2093306;28;19928;-59
2022/03/05 01:56:09;;;;;;;;;;;;;;;15.84;60.83;98499.72;2091223;28;20234;-59
2022/03/05 01:57:12;;;;;;;;;;;;;;;15.82;60.71;98491.09;2090403;28;19978;-59
2022/03/05 01:58:12;;;;;;;;;;;;;;;15.82;60.83;98496.44;2092647;28;19928;-59
2022/03/05 01:59:14;;;;;;;;;;;;;;;15.81;60.94;98496.63;2093149;28;20430;-58
2022/03/05 02:00:16;;;;;;;;;;;;;;;15.80;60.82;98493.13;2091093;28;20332;-61
2022/03/05 02:01:21;;;;;;;;;;;;;;;15.80;60.77;98487.75;2092252;28;20409;-59
2022/03/05 02:02:22;;;;;;;;;;;;;;;15.79;60.75;98494.13;2090923;28;20413;-60
2022/03/05 02:03:23;;;;;;;;;;;;;;;15.78;60.91;98500.50;2093516;28;19924;-59
2022/03/05 02:04:24;;;;;;;;;;;;;;;15.78;60.88;98500.50;2092251;28;19924;-59
2022/03/05 02:05:25;;;;;;;;;;;;;;;15.77;60.79;98496.16;2093755;28;20020;-60
2022/03/05 02:06:26;;;;;;;;;;;;;;;15.77;60.88;98498.84;2085975;28;19925;-59
2022/03/05 02:07:27;;;;;;;;;;;;;;;15.76;60.88;98493.66;2093721;28;20026;-60
2022/03/05 02:08:29;;;;;;;;;;;;;;;15.74;60.94;98499.22;2092828;28;20399;-59
2022/03/05 02:09:29;;;;;;;;;;;;;;;15.75;60.79;98494.69;2090957;28;19928;-60
2022/03/05 02:10:31;;;;;;;;;;;;;;;15.74;60.91;98498.38;2092774;28;19931;-58
2022/03/05 02:11:31;;;;;;;;;;;;;;;15.73;60.88;98494.88;2092805;28;20412;-61
2022/03/05 02:12:34;;;;;;;;;;;;;;;15.73;60.89;98492.19;2090952;28;19935;-60
2022/03/05 02:13:36;;;;;;;;;;;;;;;15.72;60.89;98493.22;2091729;28;19939;-59
2022/03/05 02:14:37;;;;;;;;;;;;;;;15.70;60.82;98497.94;2090822;28;19935;-58
2022/03/05 02:15:39;;;;;;;;;;;;;;;15.70;60.95;98492.59;2093352;28;20031;-60
2022/03/05 02:16:41;;;;;;;;;;;;;;;15.71;60.92;98498.75;2092413;28;20182;-60
2022/03/05 02:17:42;;;;;;;;;;;;;;;15.69;60.85;98496.28;2090278;28;19932;-59
2022/03/05 02:18:46;;;;;;;;;;;;;;;15.68;60.99;98497.28;2092757;28;20039;-60
2022/03/05 02:19:47;;;;;;;;;;;;;;;15.69;60.95;98500.81;2092705;28;19928;-59
2022/03/05 02:20:50;;;;;;;;;;;;;;;15.67;60.91;98495.59;2092346;28;19939;-59
2022/03/05 02:21:52;;;;;;;;;;;;;;;15.65;61.00;98495.78;2090905;28;19933;-58
2022/03/05 02:22:52;;;;;;;;;;;;;;;15.66;60.94;98501.97;2091852;28;19932;-61
2022/03/05 02:23:54;;;;;;;;;;;;;;;15.64;60.98;98499.47;2092607;28;20403;-59
2022/03/05 02:24:55;;;;;;;;;;;;;;;15.63;61.04;98497.00;2092006;28;19928;-58
2022/03/05 02:25:57;;;;;;;;;;;;;;;15.63;60.93;98499.69;2090264;28;20658;-59
2022/03/05 02:26:58;;;;;;;;;;;;;;;15.61;61.04;98499.03;2091330;28;20167;-59
2022/03/05 02:28:00;;;;;;;;;;;;;;;15.61;60.95;98493.69;2092172;28;19952;-57
2022/03/05 02:29:00;;;;;;;;;;;;;;;15.59;60.97;98491.19;2091918;28;19924;-60
2022/03/05 02:30:02;;;;;;;;;;;;;;;15.61;61.21;98493.69;2092049;28;19928;-59
2022/03/05 02:31:03;;;;;;;;;;;;;;;15.58;61.10;98486.03;2091580;28;20284;-59
2022/03/05 02:32:05;;;;;;;;;;;;;;;15.59;60.92;98485.00;2091201;28;20394;-58
2022/03/05 02:33:05;;;;;;;;;;;;;;;15.58;61.00;98488.72;2091874;28;19981;-58
2022/03/05 02:34:08;;;;;;;;;;;;;;;15.57;61.03;98484.38;2093267;28;20105;-59
2022/03/05 02:35:09;;;;;;;;;;;;;;;15.57;60.98;98487.03;2090349;28;19935;-58
2022/03/05 02:36:12;;;;;;;;;;;;;;;15.57;61.06;98487.03;2093220;28;19935;-59
2022/03/05 02:37:13;;;;;;;;;;;;;;;15.55;61.00;98489.91;2092828;28;19925;-58
2022/03/05 02:38:15;;;;;;;;;;;;;;;15.54;61.04;98482.06;2092495;28;20375;-58
2022/03/05 02:39:16;;;;;;;;;;;;;;;15.53;61.02;98483.91;2092393;28;19960;-58
2022/03/05 02:40:18;;;;;;;;;;;;;;;15.52;61.00;98486.78;2091101;28;19932;-61
2022/03/05 02:41:18;;;;;;;;;;;;;;;15.52;60.98;98484.13;2092091;28;19961;-58
2022/03/05 02:42:20;;;;;;;;;;;;;;;15.52;61.04;98484.13;2092205;28;20023;-58
2022/03/05 02:43:21;;;;;;;;;;;;;;;15.50;61.10;98486.16;2091228;28;20440;-58
2022/03/05 02:44:23;;;;;;;;;;;;;;;15.49;61.09;98487.13;2091345;28;19928;-59
2022/03/05 02:45:23;;;;;;;;;;;;;;;15.49;61.08;98489.81;2093569;28;19924;-59
2022/03/05 02:46:26;;;;;;;;;;;;;;;15.47;61.24;98495.38;2092156;28;20080;-59
2022/03/05 02:47:26;;;;;;;;;;;;;;;15.48;61.04;98493.50;2093175;28;19924;-60
2022/03/05 02:48:28;;;;;;;;;;;;;;;15.46;61.08;98493.72;2091310;28;20447;-58
2022/03/05 02:49:28;;;;;;;;;;;;;;;15.45;61.14;98494.72;2093488;28;20126;-59
2022/03/05 02:50:30;;;;;;;;;;;;;;;15.46;61.04;98492.88;2091600;28;19929;-60
2022/03/05 02:51:32;;;;;;;;;;;;;;;15.44;61.05;98487.72;2090798;28;19929;-59
2022/03/05 02:52:33;;;;;;;;;;;;;;;15.45;61.07;98488.53;2091156;28;19925;-58
2022/03/05 02:53:35;;;;;;;;;;;;;;;15.44;61.12;98494.91;2092614;28;20402;-60
2022/03/05 02:54:37;;;;;;;;;;;;;;;15.43;61.15;98486.03;2091380;28;20457;-58
2022/03/05 02:55:38;;;;;;;;;;;;;;;15.42;61.20;98489.75;2092034;28;19925;-58
2022/03/05 02:56:39;;;;;;;;;;;;;;;15.41;61.20;98488.91;2091567;28;20019;-57
2022/03/05 02:57:40;;;;;;;;;;;;;;;15.40;61.11;98489.91;2092913;28;20317;-60
2022/03/05 02:58:42;;;;;;;;;;;;;;;15.40;61.25;98492.59;2092712;28;19924;-57
2022/03/05 02:59:43;;;;;;;;;;;;;;;15.38;61.23;98491.97;2093404;28;19924;-59
2022/03/05 03:00:44;;;;;;;;;;;;;;;15.39;61.14;98498.97;2090830;28;20033;-58
2022/03/05 03:01:46;;;;;;;;;;;;;;;15.38;61.24;98491.97;2094071;28;19959;-60
2022/03/05 03:02:46;;;;;;;;;;;;;;;15.37;61.14;98486.78;2093047;28;19928;-59
2022/03/05 03:03:48;;;;;;;;;;;;;;;15.36;61.23;98480.63;2093765;28;19978;-59
2022/03/05 03:04:48;;;;;;;;;;;;;;;15.35;61.16;98484.31;2092193;28;20349;-60
2022/03/05 03:05:50;;;;;;;;;;;;;;;15.35;61.13;98483.47;2094086;28;19932;-60
2022/03/05 03:06:52;;;;;;;;;;;;;;;15.34;61.18;98488.00;2092858;28;21259;-57
2022/03/05 03:07:53;;;;;;;;;;;;;;;15.33;61.28;98489.03;2092392;28;20018;-58
2022/03/05 03:08:54;;;;;;;;;;;;;;;15.32;61.36;98492.72;2095548;28;19931;-58
2022/03/05 03:09:56;;;;;;;;;;;;;;;15.31;61.35;98492.88;2096124;28;19935;-58
2022/03/05 03:10:58;;;;;;;;;;;;;;;15.32;61.29;98489.19;2092965;28;19932;-59
2022/03/05 03:11:58;;;;;;;;;;;;;;;15.31;61.18;98488.38;2096001;28;19924;-58
2022/03/05 03:13:00;;;;;;;;;;;;;;;15.31;61.29;98488.38;2093456;28;20025;-59
2022/03/05 03:14:00;;;;;;;;;;;;;;;15.29;61.21;98485.03;2091777;28;19969;-60
2022/03/05 03:15:02;;;;;;;;;;;;;;;15.29;61.31;98489.56;2091640;28;20337;-59
2022/03/05 03:16:02;;;;;;;;;;;;;;;15.28;61.16;98486.06;2092215;28;20344;-60
2022/03/05 03:17:04;;;;;;;;;;;;;;;15.28;61.30;98482.56;2091281;28;19962;-60
2022/03/05 03:18:05;;;;;;;;;;;;;;;15.27;61.36;98486.28;2093276;28;20413;-59
2022/03/05 03:19:06;;;;;;;;;;;;;;;15.26;61.26;98496.09;2090783;28;19932;-60
2022/03/05 03:20:07;;;;;;;;;;;;;;;15.25;61.28;98489.13;2091253;28;19924;-58
2022/03/05 03:21:09;;;;;;;;;;;;;;;15.24;61.35;98490.13;2088456;28;19928;-59
2022/03/05 03:22:11;;;;;;;;;;;;;;;15.24;61.29;98491.97;2092037;28;19932;-58
2022/03/05 03:23:12;;;;;;;;;;;;;;;15.23;61.42;98495.66;2091140;28;20298;-59
2022/03/05 03:24:13;;;;;;;;;;;;;;;15.24;61.25;98495.50;2092434;28;20019;-58
2022/03/05 03:25:15;;;;;;;;;;;;;;;15.22;61.42;98489.50;2090930;28;19936;-57
2022/03/05 03:26:15;;;;;;;;;;;;;;;15.22;61.37;98494.84;2092390;28;20387;-58
2022/03/05 03:27:17;;;;;;;;;;;;;;;15.20;61.27;98497.69;2091096;28;19961;-60
2022/03/05 03:28:17;;;;;;;;;;;;;;;15.21;61.39;98498.53;2092743;28;20054;-56
2022/03/05 03:29:19;;;;;;;;;;;;;;;15.18;61.37;98497.06;2091116;28;20374;-59
2022/03/05 03:30:19;;;;;;;;;;;;;;;15.18;61.38;98497.06;2088136;28;20112;-59
2022/03/05 03:31:21;;;;;;;;;;;;;;;15.18;61.27;98493.53;2091083;28;20373;-59
2022/03/05 03:32:21;;;;;;;;;;;;;;;15.16;61.36;98491.06;2092220;28;19935;-59
2022/03/05 03:33:23;;;;;;;;;;;;;;;15.15;61.44;98500.06;2091209;28;20265;-59
2022/03/05 03:34:23;;;;;;;;;;;;;;;15.15;61.45;98504.59;2091498;28;19928;-58
2022/03/05 03:35:25;;;;;;;;;;;;;;;15.14;61.41;98502.94;2092042;28;19932;-61
2022/03/05 03:36:25;;;;;;;;;;;;;;;15.13;61.34;98501.28;2091992;28;19925;-59
2022/03/05 03:37:29;;;;;;;;;;;;;;;15.13;61.47;98507.47;2091215;28;19924;-60
2022/03/05 03:38:29;;;;;;;;;;;;;;;15.13;61.49;98493.28;2089906;28;20381;-59
2022/03/05 03:39:31;;;;;;;;;;;;;;;15.13;61.31;98502.13;2091558;28;19929;-57
2022/03/05 03:40:31;;;;;;;;;;;;;;;15.12;61.44;98504.97;2089759;28;19932;-57
2022/03/05 03:41:33;;;;;;;;;;;;;;;15.10;61.47;98496.28;2092063;28;19930;-57
2022/03/05 03:42:34;;;;;;;;;;;;;;;15.10;61.29;98506.97;2091256;28;20406;-61
2022/03/05 03:43:35;;;;;;;;;;;;;;;15.09;61.46;98508.00;2091809;28;19995;-60
2022/03/05 03:44:36;;;;;;;;;;;;;;;15.10;61.52;98509.66;2092703;28;20026;-60
2022/03/05 03:45:38;;;;;;;;;;;;;;;15.09;61.49;98506.16;2091390;28;19928;-60
2022/03/05 03:46:38;;;;;;;;;;;;;;;15.11;61.45;98506.81;2091208;28;20382;-56
2022/03/05 03:47:41;;;;;;;;;;;;;;;15.11;61.44;98504.13;2089472;28;19933;-61
2022/03/05 03:48:41;;;;;;;;;;;;;;;15.13;61.38;98517.31;2090665;28;20447;-56
2022/03/05 03:49:43;;;;;;;;;;;;;;;15.15;61.36;98523.28;2091682;28;19970;-58
2022/03/05 03:50:43;;;;;;;;;;;;;;;15.16;61.35;98514.28;2090197;28;19928;-59
2022/03/05 03:51:45;;;;;;;;;;;;;;;15.17;61.45;98519.41;2091872;28;19948;-59
2022/03/05 03:52:47;;;;;;;;;;;;;;;15.19;61.37;98511.25;2091325;28;19936;-60
2022/03/05 03:53:48;;;;;;;;;;;;;;;15.20;61.32;98516.38;2092984;28;19974;-59
2022/03/05 03:54:49;;;;;;;;;;;;;;;15.20;61.42;98512.88;2090640;28;20386;-59
2022/03/05 03:55:51;;;;;;;;;;;;;;;15.21;61.51;98503.88;2090716;28;19985;-59
2022/03/05 03:56:51;;;;;;;;;;;;;;;15.21;61.29;98511.88;2087884;28;19933;-60
2022/03/05 03:57:53;;;;;;;;;;;;;;;15.22;61.48;98510.88;2090733;28;19933;-59
2022/03/05 03:58:53;;;;;;;;;;;;;;;15.22;61.39;98505.53;2090945;28;19940;-59
2022/03/05 03:59:55;;;;;;;;;;;;;;;15.22;61.41;98510.88;2091846;28;20386;-57
2022/03/05 04:00:55;;;;;;;;;;;;;;;15.22;61.41;98515.38;2085035;28;20435;-59
2022/03/05 04:01:57;;;;;;;;;;;;;;;15.22;61.15;98510.88;2092123;28;19932;-58
2022/03/05 04:02:57;;;;;;;;;;;;;;;15.23;61.40;98506.34;2091250;28;19943;-58
2022/03/05 04:03:59;;;;;;;;;;;;;;;15.23;61.54;98511.69;2092638;28;20292;-60
2022/03/05 04:04:59;;;;;;;;;;;;;;;15.24;61.38;98508.00;2090497;28;19928;-57
2022/03/05 04:06:01;;;;;;;;;;;;;;;15.24;61.35;98514.19;2092463;28;19931;-61
2022/03/05 04:09:41;;;;;;;;;;;;;;;15.25;61.23;98515.00;2092392;28;19924;-58
2022/03/05 04:10:42;;;;;;;;;;;;;;;15.24;61.27;98514.19;2094867;28;20031;-58
2022/03/05 04:11:43;;;;;;;;;;;;;;;15.25;61.38;98510.50;2094675;28;20141;-59
2022/03/05 04:12:44;;;;;;;;;;;;;;;15.25;61.29;98518.50;2094891;28;20046;-58
2022/03/05 04:13:45;;;;;;;;;;;;;;;15.26;61.38;98522.81;2093553;28;19941;-58
2022/03/05 04:14:47;;;;;;;;;;;;;;;15.25;61.31;98523.84;2093241;28;19933;-59
2022/03/05 04:15:47;;;;;;;;;;;;;;;15.24;61.20;98518.69;2090221;28;19937;-58
2022/03/05 04:16:49;;;;;;;;;;;;;;;15.24;61.23;98513.34;2094650;28;20414;-59
2022/03/05 04:17:50;;;;;;;;;;;;;;;15.25;61.20;98523.03;2091623;28;19928;-58
2022/03/05 04:18:52;;;;;;;;;;;;;;;15.24;61.28;98521.34;2093910;28;19932;-59
2022/03/05 04:19:52;;;;;;;;;;;;;;;15.24;61.36;98519.53;2092198;28;19932;-56
2022/03/05 04:20:54;;;;;;;;;;;;;;;15.25;61.26;98521.19;2094122;28;20348;-60
2022/03/05 04:21:54;;;;;;;;;;;;;;;15.24;61.26;98519.53;2092679;28;19940;-60
2022/03/05 04:22:56;;;;;;;;;;;;;;;15.24;61.22;98519.53;2093272;28;19924;-60
2022/03/05 04:23:58;;;;;;;;;;;;;;;15.24;61.27;98522.19;2094298;28;19932;-57
2022/03/05 04:25:00;;;;;;;;;;;;;;;15.24;61.28;98519.53;2093964;28;20421;-60
2022/03/05 04:26:01;;;;;;;;;;;;;;;15.24;61.27;98522.19;2090654;28;19929;-59
2022/03/05 04:27:02;;;;;;;;;;;;;;;15.23;61.20;98517.03;2094402;28;19978;-54
2022/03/05 04:28:03;;;;;;;;;;;;;;;15.23;61.19;98523.19;2093124;28;19931;-59
2022/03/05 04:29:05;;;;;;;;;;;;;;;15.24;61.27;98518.69;2092282;28;19928;-60
2022/03/05 04:30:06;;;;;;;;;;;;;;;15.24;61.14;98518.69;2092780;28;23347;-58
2022/03/05 04:31:08;;;;;;;;;;;;;;;15.22;61.17;98513.53;2094065;28;19928;-58
2022/03/05 04:32:08;;;;;;;;;;;;;;;15.23;61.21;98522.38;2094016;28;19932;-58
2022/03/05 04:33:10;;;;;;;;;;;;;;;15.22;61.05;98521.56;2094026;28;20373;-56
2022/03/05 04:34:10;;;;;;;;;;;;;;;15.22;61.11;98516.22;2093303;28;19928;-58
2022/03/05 04:35:12;;;;;;;;;;;;;;;15.21;61.19;98517.22;2091340;28;20328;-62
2022/03/05 04:36:14;;;;;;;;;;;;;;;15.21;61.28;98519.91;2093750;28;19924;-59
2022/03/05 04:37:14;;;;;;;;;;;;;;;15.22;61.13;98524.22;2093753;28;19925;-60
2022/03/05 04:38:16;;;;;;;;;;;;;;;15.21;61.13;98522.56;2093697;28;20051;-61
2022/03/05 04:39:17;;;;;;;;;;;;;;;15.21;61.00;98525.25;2094530;28;19928;-60
2022/03/05 04:40:19;;;;;;;;;;;;;;;15.20;61.25;98523.56;2093781;28;19924;-56
2022/03/05 04:41:19;;;;;;;;;;;;;;;15.20;61.17;98518.22;2094780;28;19932;-58
2022/03/05 04:42:21;;;;;;;;;;;;;;;15.21;61.19;98519.91;2094834;28;20367;-60
2022/03/05 04:43:22;;;;;;;;;;;;;;;15.20;61.07;98528.91;2092600;28;19928;-59
2022/03/05 04:44:23;;;;;;;;;;;;;;;15.19;61.24;98525.41;2093885;28;19928;-59
2022/03/05 04:45:24;;;;;;;;;;;;;;;15.19;61.27;98517.41;2095118;28;20299;-59
2022/03/05 04:46:25;;;;;;;;;;;;;;;15.20;61.12;98528.91;2094254;28;19924;-58
2022/03/05 04:47:26;;;;;;;;;;;;;;;15.18;61.11;98522.91;2093909;28;20388;-59
2022/03/05 04:48:27;;;;;;;;;;;;;;;15.18;61.09;98522.91;2094433;28;19998;-57
2022/03/05 04:49:28;;;;;;;;;;;;;;;15.18;61.04;98531.78;2094065;28;20031;-59
2022/03/05 04:50:29;;;;;;;;;;;;;;;15.17;61.21;98527.44;2094527;28;20823;-59
2022/03/05 04:51:30;;;;;;;;;;;;;;;15.16;61.16;98528.47;2094553;28;19939;-59
2022/03/05 04:52:31;;;;;;;;;;;;;;;15.16;61.17;98527.63;2091352;28;19929;-61
2022/03/05 04:53:32;;;;;;;;;;;;;;;15.15;61.05;98537.47;2094765;28;19938;-59
2022/03/05 04:54:35;;;;;;;;;;;;;;;15.16;61.14;98532.97;2094483;28;20332;-57
2022/03/05 04:55:35;;;;;;;;;;;;;;;15.14;60.94;98527.81;2094899;28;20193;-56
2022/03/05 04:56:38;;;;;;;;;;;;;;;15.14;61.04;98526.97;2093860;28;19989;-61
2022/03/05 04:57:39;;;;;;;;;;;;;;;15.14;61.20;98533.16;2094344;28;20052;-60
2022/03/05 04:58:40;;;;;;;;;;;;;;;15.14;61.19;98543.00;2094755;28;20057;-60
2022/03/05 04:59:41;;;;;;;;;;;;;;;15.13;61.23;98539.50;2093883;28;20058;-59
2022/03/05 05:00:42;;;;;;;;;;;;;;;15.13;61.01;98542.19;2094191;28;19928;-57
2022/03/05 05:01:43;;;;;;;;;;;;;;;15.11;61.14;98549.53;2090333;28;19946;-61
2022/03/05 05:02:44;;;;;;;;;;;;;;;15.12;61.21;98539.69;2094802;28;20074;-60
2022/03/05 05:03:45;;;;;;;;;;;;;;;15.12;61.09;98547.69;2094025;28;20376;-58
2022/03/05 05:04:46;;;;;;;;;;;;;;;15.11;61.08;98551.41;2093341;28;19963;-60
2022/03/05 05:05:48;;;;;;;;;;;;;;;15.11;61.13;98540.72;2094096;28;19932;-58
2022/03/05 05:06:48;;;;;;;;;;;;;;;15.11;61.22;98551.41;2094249;28;20362;-60
2022/03/05 05:07:50;;;;;;;;;;;;;;;15.12;61.12;98553.03;2094034;28;19929;-55
2022/03/05 05:08:51;;;;;;;;;;;;;;;15.14;61.21;98554.53;2094685;28;19941;-61
2022/03/05 05:09:54;;;;;;;;;;;;;;;15.14;61.23;98545.69;2094186;28;20023;-55
2022/03/05 05:10:54;;;;;;;;;;;;;;;15.16;61.48;98546.34;2092678;28;21842;-60
2022/03/05 05:11:56;;;;;;;;;;;;;;;15.19;61.27;98543.28;2094327;28;19939;-58
2022/03/05 05:12:56;;;;;;;;;;;;;;;15.22;61.27;98553.63;2093206;28;20492;-58
2022/03/05 05:13:58;;;;;;;;;;;;;;;15.25;61.58;98542.56;2094470;28;19932;-60
2022/03/05 05:14:58;;;;;;;;;;;;;;;15.29;61.48;98551.84;2094637;28;19928;-58
2022/03/05 05:16:00;;;;;;;;;;;;;;;15.31;61.69;98549.00;2095043;28;19931;-59
2022/03/05 05:17:00;;;;;;;;;;;;;;;15.33;61.75;98545.13;2092816;28;20280;-57
2022/03/05 05:18:02;;;;;;;;;;;;;;;15.36;61.66;98544.75;2094481;28;19982;-58
2022/03/05 05:20:23;;;;;;;;;;;;;;;15.44;61.78;98545.69;2092934;28;19928;-56
2022/03/05 05:21:23;;;;;;;;;;;;;;;15.48;61.76;98549.66;2093658;28;19970;-60
2022/03/05 05:22:25;;;;;;;;;;;;;;;15.50;61.73;98548.44;2093761;28;19978;-62
2022/03/05 05:23:25;;;;;;;;;;;;;;;15.54;61.74;98540.88;2094387;28;19928;-60